createdAt,value
2019-03-11T00:01:19.922Z,99066.27
2019-03-11T00:03:51.346Z,99058.56
2019-03-11T00:06:25.278Z,99068.33
2019-03-11T00:08:56.961Z,99063.13
2019-03-11T00:11:28.184Z,99067.26
2019-03-11T00:13:58.929Z,99071.88
2019-03-11T00:16:29.941Z,99060.76
2019-03-11T00:19:00.821Z,99062.38
2019-03-11T00:21:31.936Z,99063.25
2019-03-11T00:24:03.346Z,99053.05
2019-03-11T00:26:34.212Z,99054.11
2019-03-11T00:29:06.178Z,99063.41
2019-03-11T00:31:37.760Z,99052.39
2019-03-11T00:34:08.703Z,99064.97
2019-03-11T00:36:39.393Z,99048.11
2019-03-11T00:39:10.471Z,99069.19
2019-03-11T00:41:41.595Z,99072.47
2019-03-11T00:44:12.585Z,99061.73
2019-03-11T00:46:43.673Z,99057.24
2019-03-11T00:49:14.210Z,99064.20
2019-03-11T00:51:45.194Z,99057.94
2019-03-11T00:54:16.648Z,99065.99
2019-03-11T00:56:48.772Z,99059.31
2019-03-11T00:59:19.912Z,99058.39
2019-03-11T01:01:52.491Z,99057.95
2019-03-11T01:04:23.603Z,99063.20
2019-03-11T01:06:54.093Z,99062.55
2019-03-11T01:09:25.785Z,99077.13
2019-03-11T01:11:57.038Z,99067.23
2019-03-11T01:14:27.944Z,99071.61
2019-03-11T01:17:01.296Z,99060.34
2019-03-11T01:19:32.666Z,99064.55
2019-03-11T01:22:05.884Z,99073.36
2019-03-11T01:24:36.698Z,99060.88
2019-03-11T01:27:10.687Z,99073.63
2019-03-11T01:29:41.353Z,99075.78
2019-03-11T01:32:12.619Z,99082.86
2019-03-11T01:34:44.091Z,99068.23
2019-03-11T01:37:14.881Z,99076.11
2019-03-11T01:39:45.911Z,99071.73
2019-03-11T01:42:16.229Z,99080.20
2019-03-11T01:44:46.656Z,99071.39
2019-03-11T01:47:17.396Z,99066.77
2019-03-11T01:49:48.152Z,99076.19
2019-03-11T01:52:19.812Z,99076.04
2019-03-11T01:54:50.282Z,99067.88
2019-03-11T01:57:22.161Z,99069.90
2019-03-11T01:59:53.333Z,99072.81
2019-03-11T02:02:24.646Z,99059.05
2019-03-11T02:04:55.342Z,99059.09
2019-03-11T02:07:26.237Z,99071.25
2019-03-11T02:09:56.698Z,99053.47
2019-03-11T02:12:27.526Z,99068.59
2019-03-11T02:14:58.302Z,99066.82
2019-03-11T02:17:29.485Z,99061.00
2019-03-11T02:20:01.303Z,99049.88
2019-03-11T02:22:33.391Z,99049.77
2019-03-11T02:25:05.103Z,99036.45
2019-03-11T02:27:35.722Z,99041.02
2019-03-11T02:30:06.867Z,99028.98
2019-03-11T02:32:37.669Z,99047.72
2019-03-11T02:35:09.116Z,99041.61
2019-03-11T02:37:41.124Z,99052.30
2019-03-11T02:40:12.424Z,99035.41
2019-03-11T02:42:43.453Z,99050.31
2019-03-11T02:45:15.350Z,99043.08
2019-03-11T02:47:47.326Z,99049.38
2019-03-11T02:50:19.186Z,99039.99
2019-03-11T02:52:49.820Z,99040.42
2019-03-11T02:55:20.325Z,99027.73
2019-03-11T02:57:50.864Z,99027.19
2019-03-11T03:00:24.423Z,99010.71
2019-03-11T03:03:15.085Z,99019.34
2019-03-11T03:05:51.146Z,99008.97
2019-03-11T03:08:24.171Z,99000.50
2019-03-11T03:10:54.758Z,98992.88
2019-03-11T03:13:25.195Z,98989.13
2019-03-11T03:15:57.541Z,98989.88
2019-03-11T03:18:28.279Z,98986.08
2019-03-11T03:20:58.802Z,98988.35
2019-03-11T03:23:28.637Z,98980.52
2019-03-11T03:25:58.589Z,98982.13
2019-03-11T03:28:28.724Z,98967.48
2019-03-11T03:30:59.109Z,98962.88
2019-03-11T03:33:29.451Z,98957.92
2019-03-11T03:35:59.768Z,98951.27
2019-03-11T03:38:31.460Z,98940.34
2019-03-11T03:41:01.994Z,98925.84
2019-03-11T03:43:31.885Z,98924.68
2019-03-11T03:46:02.279Z,98931.98
2019-03-11T03:48:32.566Z,98925.48
2019-03-11T03:51:03.045Z,98921.48
2019-03-11T03:53:34.357Z,98916.59
2019-03-11T03:56:04.480Z,98923.56
2019-03-11T03:58:35.875Z,98912.66
2019-03-11T04:01:06.267Z,98912.77
2019-03-11T04:03:37.487Z,98916.05
2019-03-11T04:06:09.255Z,98914.38
2019-03-11T04:08:39.481Z,98917.35
2019-03-11T04:11:09.832Z,98926.54
2019-03-11T04:13:39.784Z,98925.87
2019-03-11T04:16:10.194Z,98928.75
2019-03-11T04:18:54.921Z,98938.45
2019-03-11T04:21:26.128Z,98933.11
2019-03-11T04:23:57.438Z,98935.19
2019-03-11T04:26:32.620Z,98932.08
2019-03-11T04:29:02.998Z,98930.77
2019-03-11T04:31:34.268Z,98921.02
2019-03-11T04:34:04.371Z,98915.90
2019-03-11T04:36:35.975Z,98916.55
2019-03-11T04:39:07.458Z,98916.76
2019-03-11T04:41:38.442Z,98904.63
2019-03-11T04:44:08.349Z,98899.92
2019-03-11T04:46:38.703Z,98915.09
2019-03-11T04:49:09.516Z,98913.30
2019-03-11T04:51:40.305Z,98905.70
2019-03-11T04:54:11.132Z,98914.75
2019-03-11T04:59:13.590Z,98900.73
2019-03-11T05:01:44.946Z,98888.78
2019-03-11T05:04:16.647Z,98879.43
2019-03-11T05:06:47.626Z,98893.26
2019-03-11T05:09:18.356Z,98900.88
2019-03-11T05:11:49.246Z,98885.31
2019-03-11T05:14:20.672Z,98887.66
2019-03-11T05:16:52.924Z,98879.28
2019-03-11T05:19:24.923Z,98884.78
2019-03-11T05:21:56.305Z,98881.82
2019-03-11T05:24:27.159Z,98890.66
2019-03-11T05:26:57.796Z,98885.48
2019-03-11T05:29:30.927Z,98907.09
2019-03-11T05:32:03.843Z,98896.11
2019-03-11T05:34:36.758Z,98895.22
2019-03-11T05:37:07.231Z,98891.51
2019-03-11T05:39:37.486Z,98887.87
2019-03-11T05:42:08.458Z,98897.81
2019-03-11T05:44:39.791Z,98900.52
2019-03-11T05:47:10.723Z,98898.98
2019-03-11T05:49:43.438Z,98881.63
2019-03-11T05:52:14.388Z,98902.96
2019-03-11T05:54:44.914Z,98801.83
2019-03-11T05:57:17.161Z,98898.01
2019-03-11T05:59:49.194Z,98893.14
2019-03-11T06:02:20.232Z,98904.63
2019-03-11T06:04:51.562Z,98906.04
2019-03-11T06:07:22.626Z,98917.13
2019-03-11T06:09:53.619Z,98910.16
2019-03-11T06:12:26.498Z,98911.02
2019-03-11T06:14:58.758Z,98922.86
2019-03-11T06:17:30.057Z,98931.33
2019-03-11T06:20:26.719Z,98935.73
2019-03-11T06:23:00.008Z,98954.39
2019-03-11T06:25:30.594Z,98950.73
2019-03-11T06:28:05.255Z,98955.56
2019-03-11T06:30:36.707Z,98951.22
2019-03-11T06:33:08.934Z,98947.55
2019-03-11T06:35:40.497Z,98865.34
2019-03-11T06:38:11.642Z,98969.45
2019-03-11T06:40:45.822Z,98976.43
2019-03-11T06:43:17.115Z,98909.69
2019-03-11T06:45:47.927Z,98984.52
2019-03-11T06:48:20.383Z,98989.78
2019-03-11T06:50:50.937Z,98902.66
2019-03-11T06:53:21.123Z,98995.45
2019-03-11T06:55:51.692Z,98993.45
2019-03-11T06:58:22.188Z,99000.84
2019-03-11T07:00:52.755Z,99001.53
2019-03-11T07:03:23.102Z,99001.66
2019-03-11T07:05:53.463Z,99008.72
2019-03-11T07:08:25.306Z,99006.30
2019-03-11T07:10:58.502Z,99011.40
2019-03-11T07:13:31.939Z,99022.81
2019-03-11T07:16:03.092Z,98927.42
2019-03-11T07:18:37.378Z,99023.06
2019-03-11T07:21:09.129Z,99020.73
2019-03-11T07:23:39.701Z,99029.49
2019-03-11T07:26:10.379Z,99027.41
2019-03-11T07:28:42.310Z,99026.11
2019-03-11T07:31:12.945Z,99038.95
2019-03-11T07:33:43.378Z,99045.59
2019-03-11T07:36:13.911Z,99037.09
2019-03-11T07:38:44.963Z,99035.14
2019-03-11T07:41:16.981Z,99037.69
2019-03-11T07:43:49.651Z,99039.98
2019-03-11T07:46:22.226Z,99039.95
2019-03-11T07:48:55.642Z,99027.56
2019-03-11T07:51:26.816Z,99035.92
2019-03-11T07:54:03.645Z,99028.25
2019-03-11T07:56:34.516Z,99041.94
2019-03-11T07:59:06.157Z,98947.73
2019-03-11T08:01:41.433Z,99027.72
2019-03-11T08:04:14.618Z,99035.28
2019-03-11T08:06:47.808Z,99042.56
2019-03-11T08:09:22.949Z,99047.53
2019-03-11T08:11:53.463Z,99045.58
2019-03-11T08:14:26.153Z,99053.94
2019-03-11T08:16:58.044Z,99043.55
2019-03-11T08:19:28.918Z,99051.73
2019-03-11T08:22:00.493Z,99048.14
2019-03-11T08:24:33.164Z,99040.54
2019-03-11T08:27:04.771Z,99030.80
2019-03-11T08:29:35.371Z,99035.60
2019-03-11T08:32:08.380Z,99039.78
2019-03-11T08:34:40.184Z,99051.86
2019-03-11T08:37:11.597Z,99038.48
2019-03-11T08:39:42.182Z,99041.16
2019-03-11T08:42:12.956Z,99038.98
2019-03-11T08:44:44.086Z,99038.48
2019-03-11T08:47:17.221Z,99043.40
2019-03-11T08:49:48.675Z,99051.88
2019-03-11T08:52:20.701Z,99040.70
2019-03-11T08:54:51.688Z,99039.21
2019-03-11T08:57:24.849Z,99026.95
2019-03-11T08:59:58.214Z,99036.89
2019-03-11T09:02:29.025Z,99043.39
2019-03-11T09:04:59.680Z,99042.11
2019-03-11T09:07:30.723Z,99036.69
2019-03-11T09:10:06.401Z,99054.84
2019-03-11T09:12:40.714Z,99056.41
2019-03-11T09:15:14.731Z,99068.36
2019-03-11T09:17:49.475Z,99073.72
2019-03-11T09:20:42.277Z,99078.82
2019-03-11T09:23:14.535Z,99092.98
2019-03-11T09:25:47.545Z,99082.03
2019-03-11T09:28:18.473Z,99078.63
2019-03-11T09:30:52.296Z,99066.38
2019-03-11T09:33:25.520Z,99074.73
2019-03-11T09:35:56.051Z,99066.38
2019-03-11T09:38:26.879Z,99076.15
2019-03-11T09:40:58.241Z,99044.08
2019-03-11T09:43:29.703Z,99074.47
2019-03-11T09:46:00.702Z,99062.91
2019-03-11T09:48:31.536Z,99054.84
2019-03-11T09:51:02.890Z,99066.80
2019-03-11T09:53:33.683Z,99060.83
2019-03-11T09:56:04.230Z,99062.26
2019-03-11T09:58:35.458Z,99065.67
2019-03-11T10:01:08.548Z,99067.00
2019-03-11T10:03:39.941Z,99067.31
2019-03-11T10:06:10.651Z,99065.60
2019-03-11T10:08:40.885Z,99081.02
2019-03-11T10:11:12.997Z,99071.67
2019-03-11T10:13:43.315Z,99078.13
2019-03-11T10:16:14.112Z,99069.48
2019-03-11T10:18:44.998Z,99072.21
2019-03-11T10:21:15.989Z,99075.27
2019-03-11T10:23:49.456Z,99085.95
2019-03-11T10:26:20.582Z,99088.02
2019-03-11T10:28:51.960Z,99091.02
2019-03-11T10:31:22.368Z,99118.20
2019-03-11T10:33:53.285Z,99121.51
2019-03-11T10:36:24.205Z,99119.77
2019-03-11T10:38:55.011Z,99141.08
2019-03-11T10:41:26.225Z,99134.95
2019-03-11T10:43:58.298Z,99130.56
2019-03-11T10:46:29.351Z,99124.52
2019-03-11T10:49:00.501Z,99135.34
2019-03-11T10:51:31.211Z,99122.54
2019-03-11T10:54:03.634Z,99105.91
2019-03-11T10:56:36.037Z,99045.05
2019-03-11T10:59:06.943Z,99107.33
2019-03-11T11:01:38.282Z,99105.55
2019-03-11T11:04:09.050Z,99117.71
2019-03-11T11:06:41.768Z,99105.59
2019-03-11T11:09:12.425Z,99111.16
2019-03-11T11:11:43.499Z,99118.33
2019-03-11T11:14:13.945Z,99126.40
2019-03-11T11:16:46.540Z,99120.38
2019-03-11T11:19:17.491Z,99120.81
2019-03-11T11:21:47.928Z,99122.59
2019-03-11T11:24:19.355Z,99125.23
2019-03-11T11:26:50.036Z,99133.68
2019-03-11T11:29:21.022Z,99137.23
2019-03-11T11:31:52.018Z,99131.87
2019-03-11T11:34:22.697Z,99148.34
2019-03-11T11:36:53.860Z,99159.71
2019-03-11T11:39:27.027Z,99156.31
2019-03-11T11:41:58.540Z,99162.82
2019-03-11T11:44:30.243Z,99157.24
2019-03-11T11:47:00.751Z,99170.91
2019-03-11T11:49:32.166Z,99179.48
2019-03-11T11:52:02.671Z,99186.11
2019-03-11T11:54:32.870Z,99183.55
2019-03-11T11:57:02.927Z,99162.16
2019-03-11T11:59:32.888Z,99197.38
2019-03-11T12:02:04.296Z,99186.20
2019-03-11T12:04:34.507Z,99182.83
2019-03-11T12:07:04.777Z,99203.50
2019-03-11T12:09:34.799Z,99202.59
2019-03-11T12:12:06.068Z,99197.30
2019-03-11T12:14:36.448Z,99198.03
2019-03-11T12:17:06.994Z,99203.17
2019-03-11T12:19:37.086Z,99207.52
2019-03-11T12:22:07.287Z,99207.06
2019-03-11T12:24:37.337Z,99219.73
2019-03-11T12:27:07.437Z,99212.88
2019-03-11T12:29:37.686Z,99214.61
2019-03-11T12:32:07.767Z,99224.66
2019-03-11T12:34:37.645Z,99133.95
2019-03-11T12:37:07.723Z,99236.88
2019-03-11T12:39:37.880Z,99238.94
2019-03-11T12:42:07.937Z,99246.46
2019-03-11T12:44:38.195Z,99241.77
2019-03-11T12:47:08.593Z,99239.87
2019-03-11T12:49:38.566Z,99261.77
2019-03-11T12:52:08.568Z,99260.79
2019-03-11T12:54:38.560Z,99263.93
2019-03-11T12:57:08.501Z,99276.48
2019-03-11T12:59:40.740Z,99276.68
2019-03-11T13:02:11.540Z,99278.95
2019-03-11T13:04:41.669Z,99282.84
2019-03-11T13:07:12.185Z,99278.10
2019-03-11T13:09:42.658Z,99279.00
2019-03-11T13:12:13.050Z,99279.67
2019-03-11T13:14:43.248Z,99271.89
2019-03-11T13:17:13.381Z,99267.28
2019-03-11T13:19:43.598Z,99271.86
2019-03-11T13:22:13.712Z,99269.91
2019-03-11T13:24:44.469Z,99276.95
2019-03-11T13:27:14.530Z,99277.43
2019-03-11T13:29:44.403Z,99298.94
2019-03-11T13:32:14.429Z,99289.92
2019-03-11T13:34:44.444Z,99295.24
2019-03-11T13:37:14.724Z,99288.34
2019-03-11T13:39:44.958Z,99291.41
2019-03-11T13:42:14.870Z,99272.84
2019-03-11T13:44:44.965Z,99286.93
2019-03-11T13:47:15.250Z,99301.82
2019-03-11T13:49:45.440Z,99301.02
2019-03-11T13:52:15.390Z,99298.19
2019-03-11T13:54:45.400Z,99290.05
2019-03-11T13:57:15.621Z,99299.25
2019-03-11T13:59:45.493Z,99292.89
2019-03-11T14:02:15.572Z,99302.53
2019-03-11T14:04:45.511Z,99309.95
2019-03-11T14:07:15.555Z,99307.73
2019-03-11T14:09:45.535Z,99310.45
2019-03-11T14:12:15.434Z,99326.61
2019-03-11T14:14:45.445Z,99305.62
2019-03-11T14:17:15.755Z,99331.86
2019-03-11T14:19:47.243Z,99320.27
2019-03-11T14:22:17.257Z,99320.99
2019-03-11T14:24:47.647Z,99307.28
2019-03-11T14:27:17.597Z,99317.03
2019-03-11T14:29:47.734Z,99330.30
2019-03-11T14:32:18.184Z,99322.00
2019-03-11T14:34:49.382Z,99318.66
2019-03-11T14:37:19.918Z,99323.77
2019-03-11T14:39:56.357Z,99327.88
2019-03-11T14:42:27.246Z,99321.02
2019-03-11T14:44:58.065Z,99316.44
2019-03-11T14:47:28.713Z,99308.00
2019-03-11T14:49:58.950Z,99322.13
2019-03-11T14:52:29.155Z,99322.42
2019-03-11T14:54:59.671Z,99323.80
2019-03-11T14:57:29.924Z,99327.97
2019-03-11T15:00:00.481Z,99339.30
2019-03-11T15:02:30.880Z,99321.33
2019-03-11T15:05:00.859Z,99321.03
2019-03-11T15:07:31.050Z,99321.76
2019-03-11T15:10:01.109Z,99338.23
2019-03-11T15:12:31.314Z,99334.04
2019-03-11T15:15:04.052Z,99338.47
2019-03-11T15:17:34.464Z,99332.77
2019-03-11T15:20:05.137Z,99344.09
2019-03-11T15:22:35.075Z,99337.71
2019-03-11T15:25:05.945Z,99345.07
2019-03-11T15:30:05.630Z,99345.91
2019-03-11T15:32:35.546Z,99254.02
2019-03-11T15:35:06.168Z,99337.67
2019-03-11T15:37:36.510Z,99333.45
2019-03-11T15:40:07.307Z,99330.84
2019-03-11T15:42:37.430Z,99327.67
2019-03-11T15:45:08.822Z,99320.47
2019-03-11T15:47:38.960Z,99325.30
2019-03-11T15:50:14.124Z,99321.23
2019-03-11T15:52:44.468Z,99320.27
2019-03-11T15:55:15.339Z,99320.80
2019-03-11T15:57:45.411Z,99322.04
2019-03-11T16:00:18.527Z,99317.38
2019-03-11T16:02:52.008Z,99307.83
2019-03-11T16:05:23.299Z,99307.06
2019-03-11T16:07:54.670Z,99316.31
2019-03-11T16:10:27.534Z,99319.67
2019-03-11T16:12:58.525Z,99315.56
2019-03-11T16:15:29.353Z,99305.86
2019-03-11T16:18:01.426Z,99315.13
2019-03-11T16:20:35.390Z,99329.16
2019-03-11T16:23:06.359Z,99317.66
2019-03-11T16:25:39.537Z,99313.31
2019-03-11T16:28:10.277Z,99316.38
2019-03-11T16:30:40.677Z,99322.80
2019-03-11T16:33:11.750Z,99305.77
2019-03-11T16:35:44.925Z,99323.67
2019-03-11T16:38:14.904Z,99329.30
2019-03-11T16:40:45.409Z,99333.42
2019-03-11T16:43:15.699Z,99331.86
2019-03-11T16:45:47.867Z,99325.45
2019-03-11T16:48:18.560Z,99332.83
2019-03-11T16:50:51.607Z,99328.89
2019-03-11T16:53:22.475Z,99344.63
2019-03-11T16:55:53.321Z,99334.12
2019-03-11T16:58:23.695Z,99338.22
2019-03-11T17:00:59.663Z,99343.66
2019-03-11T17:03:35.541Z,99350.26
2019-03-11T17:06:10.904Z,99346.58
2019-03-11T17:08:45.784Z,99347.20
2019-03-11T17:11:19.146Z,99357.51
2019-03-11T17:14:01.515Z,99355.30
2019-03-11T17:16:37.714Z,99343.03
2019-03-11T17:19:13.487Z,99357.78
2019-03-11T17:21:44.553Z,99354.07
2019-03-11T17:24:18.863Z,99351.80
2019-03-11T17:27:10.487Z,99355.86
2019-03-11T17:32:41.289Z,99366.07
2019-03-11T17:35:14.530Z,99365.59
2019-03-11T17:37:48.281Z,99374.78
2019-03-11T17:40:23.043Z,99367.69
2019-03-11T17:42:55.652Z,99355.48
2019-03-11T17:45:27.716Z,99198.97
2019-03-11T17:47:58.663Z,99358.92
2019-03-11T17:50:29.288Z,99359.30
2019-03-11T17:52:59.412Z,99373.67
2019-03-11T17:55:34.262Z,99366.77
2019-03-11T17:58:07.242Z,99359.59
2019-03-11T18:00:41.875Z,99271.21
2019-03-11T18:03:19.250Z,99362.87
2019-03-11T18:06:11.083Z,99370.17
2019-03-11T18:08:37.400Z,99287.92
2019-03-11T18:11:10.942Z,99328.16
2019-03-11T18:13:44.016Z,99367.30
2019-03-11T18:16:22.881Z,99366.06
2019-03-11T18:18:56.909Z,99371.19
2019-03-11T18:21:30.032Z,99280.14
2019-03-11T18:24:06.738Z,99391.00
2019-03-11T18:26:39.222Z,99380.86
2019-03-11T18:29:11.009Z,99385.47
2019-03-11T18:31:41.134Z,99380.67
2019-03-11T18:34:11.328Z,99379.31
2019-03-11T18:36:41.761Z,99385.79
2019-03-11T18:39:12.500Z,99389.98
2019-03-11T18:41:44.149Z,99404.70
2019-03-11T18:44:15.527Z,99388.84
2019-03-11T18:46:46.295Z,99393.06
2019-03-11T18:49:17.080Z,99387.93
2019-03-11T18:51:47.489Z,99386.41
2019-03-11T18:54:17.978Z,99411.90
2019-03-11T18:56:48.709Z,99408.38
2019-03-11T18:59:18.986Z,99413.67
2019-03-11T19:01:50.624Z,99421.80
2019-03-11T19:04:25.630Z,99417.11
2019-03-11T19:06:59.306Z,99417.27
2019-03-11T19:09:33.071Z,99407.94
2019-03-11T19:12:03.431Z,99418.52
2019-03-11T19:14:34.651Z,99421.33
2019-03-11T19:17:07.175Z,99424.14
2019-03-11T19:19:46.247Z,99423.50
2019-03-11T19:22:11.329Z,99425.28
2019-03-11T19:24:49.083Z,99413.77
2019-03-11T19:27:20.781Z,99428.36
2019-03-11T19:29:51.038Z,99426.91
2019-03-11T19:32:21.505Z,99436.81
2019-03-11T19:34:53.717Z,99424.95
2019-03-11T19:37:25.124Z,99443.10
2019-03-11T19:39:55.878Z,99434.03
2019-03-11T19:42:31.651Z,99440.52
2019-03-11T19:45:12.189Z,99434.35
2019-03-11T19:47:43.053Z,99444.40
2019-03-11T19:50:17.259Z,99378.17
2019-03-11T19:52:58.520Z,99460.77
2019-03-11T19:55:40.720Z,99463.84
2019-03-11T19:58:12.974Z,99461.58
2019-03-11T20:00:48.181Z,99463.55
2019-03-11T20:03:26.944Z,99472.11
2019-03-11T20:05:54.126Z,99465.66
2019-03-11T20:08:26.355Z,99479.61
2019-03-11T20:11:00.242Z,99473.61
2019-03-11T20:13:30.438Z,99492.53
2019-03-11T20:16:01.433Z,99501.13
2019-03-11T20:18:32.052Z,99508.59
2019-03-11T20:21:03.295Z,99508.10
2019-03-11T20:23:34.705Z,99516.22
2019-03-11T20:26:05.646Z,99521.56
2019-03-11T20:28:35.853Z,99529.20
2019-03-11T20:31:06.340Z,99526.14
2019-03-11T20:33:36.367Z,99539.42
2019-03-11T20:36:19.760Z,99544.92
2019-03-11T20:38:39.175Z,99563.72
2019-03-11T20:41:09.475Z,99569.08
2019-03-11T20:43:39.790Z,99559.35
2019-03-11T20:46:11.032Z,99571.98
2019-03-11T20:48:41.247Z,99577.65
2019-03-11T20:51:12.513Z,99578.47
2019-03-11T20:53:42.749Z,99590.62
2019-03-11T20:56:12.781Z,99599.34
2019-03-11T20:58:44.186Z,99611.97
2019-03-11T21:01:15.319Z,99611.97
2019-03-11T21:03:45.923Z,99624.92
2019-03-11T21:06:16.829Z,99624.77
2019-03-11T21:08:47.256Z,99627.84
2019-03-11T21:11:17.295Z,99640.16
2019-03-11T21:13:50.647Z,99644.05
2019-03-11T21:16:21.304Z,99645.34
2019-03-11T21:18:52.010Z,99658.47
2019-03-11T21:21:22.223Z,99669.48
2019-03-11T21:24:01.949Z,99681.97
2019-03-11T21:26:25.342Z,99694.27
2019-03-11T21:28:58.139Z,99695.41
2019-03-11T21:31:28.278Z,99697.05
2019-03-11T21:33:59.342Z,99700.09
2019-03-11T21:36:32.491Z,99700.59
2019-03-11T21:39:02.817Z,99704.13
2019-03-11T21:41:32.989Z,99703.64
2019-03-11T21:44:03.733Z,99716.75
2019-03-11T21:46:33.658Z,99620.63
2019-03-11T21:49:05.281Z,99741.06
2019-03-11T21:51:35.390Z,99734.59
2019-03-11T21:54:05.617Z,99743.63
2019-03-11T21:56:36.098Z,99750.28
2019-03-11T21:59:06.565Z,99757.39
2019-03-11T22:01:36.590Z,99768.09
2019-03-11T22:04:06.717Z,99776.00
2019-03-11T22:06:37.563Z,99778.59
2019-03-11T22:09:08.655Z,99795.10
2019-03-11T22:11:38.587Z,99803.36
2019-03-11T22:14:09.044Z,99804.70
2019-03-11T22:16:39.273Z,99810.22
2019-03-11T22:19:09.781Z,99817.69
2019-03-11T22:21:40.136Z,99822.73
2019-03-11T22:24:10.099Z,99833.61
2019-03-11T22:26:40.295Z,99832.17
2019-03-11T22:29:10.674Z,99831.56
2019-03-11T22:31:41.296Z,99840.48
2019-03-11T22:34:11.207Z,99848.44
2019-03-11T22:36:41.675Z,99848.61
2019-03-11T22:39:11.801Z,99858.02
2019-03-11T22:41:41.815Z,99858.84
2019-03-11T22:44:12.627Z,99862.39
2019-03-11T22:46:42.780Z,99878.45
2019-03-11T22:49:13.344Z,99806.73
2019-03-11T22:51:44.005Z,99882.34
2019-03-11T22:54:15.719Z,99889.45
2019-03-11T22:56:46.575Z,99887.19
2019-03-11T22:59:19.527Z,99889.33
2019-03-11T23:01:50.565Z,99900.19
2019-03-11T23:04:21.228Z,99905.71
2019-03-11T23:06:51.539Z,99911.23
2019-03-11T23:09:21.584Z,99930.69
2019-03-11T23:11:53.853Z,99919.82
2019-03-11T23:14:26.208Z,99927.76
2019-03-11T23:16:57.665Z,99935.72
2019-03-11T23:19:28.888Z,99932.02
2019-03-11T23:21:58.966Z,99940.10
2019-03-11T23:24:30.855Z,99940.09
2019-03-11T23:27:00.885Z,99935.91
2019-03-11T23:29:32.177Z,99934.25
2019-03-11T23:32:03.903Z,99940.37
2019-03-11T23:34:33.991Z,99865.64
2019-03-11T23:37:07.731Z,99956.42
2019-03-11T23:39:38.711Z,99965.83
2019-03-11T23:42:08.604Z,99975.02
2019-03-11T23:44:38.647Z,99967.91
2019-03-11T23:47:08.654Z,99959.45
2019-03-11T23:49:39.470Z,99969.34
2019-03-11T23:52:09.442Z,99973.05
2019-03-11T23:54:39.304Z,99976.78
2019-03-11T23:57:09.231Z,99976.30
2019-03-11T23:59:39.695Z,99969.82
